createdAt,value
2023-06-17T00:00:28.404Z,12.63
2023-06-17T00:03:49.933Z,11.80
2023-06-17T00:07:11.407Z,11.80
2023-06-17T00:10:32.806Z,12.10
2023-06-17T00:13:55.672Z,11.97
2023-06-17T00:17:17.113Z,14.63
2023-06-17T00:20:38.699Z,15.40
2023-06-17T00:23:59.901Z,14.77
2023-06-17T00:27:21.142Z,14.73
2023-06-17T00:30:46.543Z,14.03
2023-06-17T00:34:07.788Z,13.23
2023-06-17T00:37:29.065Z,13.13
2023-06-17T00:40:50.574Z,15.53
2023-06-17T00:44:11.888Z,17.33
2023-06-17T00:47:34.711Z,16.73
2023-06-17T00:51:02.735Z,18.10
2023-06-17T00:54:25.267Z,17.37
2023-06-17T00:57:48.845Z,17.23
2023-06-17T01:01:10.633Z,17.63
2023-06-17T01:04:34.162Z,18.07
2023-06-17T01:08:11.234Z,19.13
2023-06-17T01:11:33.257Z,18.57
2023-06-17T01:14:58.338Z,18.10
2023-06-17T01:18:21.225Z,18.77
2023-06-17T01:21:44.450Z,17.33
2023-06-17T01:25:09.912Z,17.60
2023-06-17T01:28:31.848Z,18.10
2023-06-17T01:31:57.677Z,16.27
2023-06-17T01:35:19.258Z,17.27
2023-06-17T01:38:44.773Z,15.60
2023-06-17T01:42:12.246Z,16.83
2023-06-17T01:45:34.365Z,18.20
2023-06-17T01:48:56.704Z,19.90
2023-06-17T01:52:18.367Z,16.80
2023-06-17T01:55:40.428Z,18.10
2023-06-17T01:59:03.046Z,16.97
2023-06-17T02:02:24.828Z,18.43
2023-06-17T02:05:46.848Z,17.47
2023-06-17T02:09:08.342Z,19.80
2023-06-17T02:12:29.733Z,18.93
2023-06-17T02:15:52.571Z,18.17
2023-06-17T02:19:15.854Z,18.13
2023-06-17T02:22:37.976Z,15.90
2023-06-17T02:25:59.658Z,17.53
2023-06-17T02:29:21.238Z,17.30
2023-06-17T02:32:44.219Z,16.77
2023-06-17T02:36:06.211Z,15.97
2023-06-17T02:39:27.644Z,16.00
2023-06-17T02:42:48.911Z,15.93
2023-06-17T02:46:10.513Z,17.83
2023-06-17T02:49:33.217Z,17.10
2023-06-17T02:52:56.869Z,18.30
2023-06-17T02:56:18.659Z,16.67
2023-06-17T02:59:39.899Z,15.03
2023-06-17T03:03:01.513Z,17.37
2023-06-17T03:06:25.022Z,14.73
2023-06-17T03:09:46.929Z,17.10
2023-06-17T03:13:08.548Z,18.03
2023-06-17T03:16:32.698Z,17.50
2023-06-17T03:19:55.472Z,15.60
2023-06-17T03:23:18.874Z,15.53
2023-06-17T03:26:40.241Z,17.17
2023-06-17T03:30:02.295Z,15.80
2023-06-17T03:33:23.595Z,19.20
2023-06-17T03:36:48.574Z,16.07
2023-06-17T03:40:14.686Z,17.80
2023-06-17T03:43:36.274Z,17.63
2023-06-17T03:46:59.257Z,16.87
2023-06-17T03:50:21.043Z,15.87
2023-06-17T03:53:42.694Z,15.83
2023-06-17T03:57:05.959Z,15.43
2023-06-17T04:00:27.876Z,16.63
2023-06-17T04:03:50.099Z,14.67
2023-06-17T04:07:11.958Z,15.27
2023-06-17T04:10:33.468Z,15.50
2023-06-17T04:13:56.217Z,14.23
2023-06-17T04:17:19.050Z,15.50
2023-06-17T04:20:41.295Z,15.10
2023-06-17T04:24:02.954Z,16.27
2023-06-17T04:27:24.465Z,16.00
2023-06-17T04:30:47.622Z,15.70
2023-06-17T04:34:08.836Z,16.43
2023-06-17T04:37:30.193Z,17.17
2023-06-17T04:40:53.805Z,14.97
2023-06-17T04:44:15.420Z,16.30
2023-06-17T04:47:38.658Z,15.47
2023-06-17T04:51:00.857Z,16.63
2023-06-17T04:54:25.670Z,15.63
2023-06-17T04:57:47.456Z,17.47
2023-06-17T05:01:11.643Z,18.90
2023-06-17T05:04:34.538Z,17.20
2023-06-17T05:07:56.298Z,18.07
2023-06-17T05:11:17.655Z,17.53
2023-06-17T05:14:38.956Z,17.63
2023-06-17T05:18:00.344Z,19.87
2023-06-17T05:21:24.674Z,18.97
2023-06-17T05:24:46.195Z,21.00
2023-06-17T05:28:08.277Z,19.33
2023-06-17T05:31:29.351Z,18.20
2023-06-17T05:34:50.997Z,21.67
2023-06-17T05:38:13.815Z,19.70
2023-06-17T05:41:35.094Z,18.60
2023-06-17T05:44:56.641Z,17.97
2023-06-17T05:48:18.014Z,18.17
2023-06-17T05:51:39.761Z,21.73
2023-06-17T05:55:02.299Z,20.63
2023-06-17T05:58:24.009Z,20.57
2023-06-17T06:01:45.502Z,19.60
2023-06-17T06:05:07.758Z,20.97
2023-06-17T06:08:29.247Z,20.00
2023-06-17T06:11:51.749Z,20.80
2023-06-17T06:15:12.952Z,19.67
2023-06-17T06:18:34.533Z,18.90
2023-06-17T06:21:56.510Z,19.37
2023-06-17T06:25:17.856Z,20.60
2023-06-17T06:28:40.611Z,20.07
2023-06-17T06:32:01.980Z,20.23
2023-06-17T06:35:23.499Z,19.33
2023-06-17T06:38:44.973Z,21.23
2023-06-17T06:42:07.183Z,18.00
2023-06-17T06:45:30.609Z,18.70
2023-06-17T06:48:51.863Z,19.13
2023-06-17T06:52:13.149Z,18.80
2023-06-17T06:55:34.580Z,19.23
2023-06-17T06:58:57.523Z,18.23
2023-06-17T07:02:20.523Z,16.23
2023-06-17T07:05:42.189Z,16.70
2023-06-17T07:09:03.599Z,20.13
2023-06-17T07:12:25.019Z,18.60
2023-06-17T07:15:46.606Z,18.33
2023-06-17T07:19:09.596Z,18.70
2023-06-17T07:22:31.090Z,21.33
2023-06-17T07:25:54.332Z,19.20
2023-06-17T07:29:17.653Z,18.27
2023-06-17T07:32:39.364Z,19.97
2023-06-17T07:36:01.891Z,19.00
2023-06-17T07:39:24.979Z,17.43
2023-06-17T07:42:46.570Z,19.33
2023-06-17T07:46:08.508Z,19.80
2023-06-17T07:49:30.951Z,17.30
2023-06-17T07:52:54.106Z,17.47
2023-06-17T07:56:15.608Z,17.07
2023-06-17T07:59:37.510Z,17.40
2023-06-17T08:02:58.822Z,18.43
2023-06-17T08:06:20.936Z,16.53
2023-06-17T08:09:43.608Z,16.80
2023-06-17T08:13:05.070Z,17.23
2023-06-17T08:16:26.495Z,15.23
2023-06-17T08:19:48.345Z,16.53
2023-06-17T08:23:09.929Z,13.33
2023-06-17T08:26:32.506Z,15.83
2023-06-17T08:29:53.741Z,15.53
2023-06-17T08:33:15.191Z,16.33
2023-06-17T08:36:38.464Z,16.17
2023-06-17T08:39:59.800Z,15.90
2023-06-17T08:43:23.333Z,16.13
2023-06-17T08:46:45.751Z,16.20
2023-06-17T08:50:08.786Z,14.47
2023-06-17T08:53:32.087Z,13.83
2023-06-17T08:56:54.907Z,13.27
2023-06-17T09:00:18.814Z,12.17
2023-06-17T09:03:42.340Z,12.30
2023-06-17T09:07:03.760Z,12.90
2023-06-17T09:10:25.075Z,13.53
2023-06-17T09:13:51.512Z,13.27
2023-06-17T09:17:29.870Z,11.53
2023-06-17T09:20:52.965Z,12.40
2023-06-17T09:24:14.505Z,12.20
2023-06-17T09:27:36.211Z,12.50
2023-06-17T09:31:00.654Z,12.47
2023-06-17T09:34:25.755Z,11.60
2023-06-17T09:38:02.588Z,11.67
2023-06-17T09:41:26.165Z,10.87
2023-06-17T09:44:48.567Z,12.47
2023-06-17T09:48:11.122Z,10.67
2023-06-17T09:51:38.919Z,11.43
2023-06-17T09:55:03.624Z,10.20
2023-06-17T09:58:26.815Z,10.87
2023-06-17T10:01:49.949Z,10.03
2023-06-17T10:05:12.172Z,9.50
2023-06-17T10:08:37.536Z,10.00
2023-06-17T10:12:02.150Z,7.90
2023-06-17T10:15:24.752Z,7.93
2023-06-17T10:18:50.010Z,7.93
2023-06-17T10:22:14.274Z,8.07
2023-06-17T10:25:38.344Z,7.20
2023-06-17T10:29:03.421Z,7.83
2023-06-17T10:32:26.071Z,7.70
2023-06-17T10:35:47.474Z,6.57
2023-06-17T10:39:11.368Z,8.63
2023-06-17T10:42:34.028Z,7.90
2023-06-17T10:45:56.576Z,7.50
2023-06-17T10:49:19.356Z,6.00
2023-06-17T10:52:41.225Z,7.43
2023-06-17T10:56:04.439Z,6.93
2023-06-17T10:59:27.621Z,6.73
2023-06-17T11:02:49.378Z,5.60
2023-06-17T11:06:11.729Z,6.57
2023-06-17T11:09:35.360Z,7.30
2023-06-17T11:12:56.779Z,6.80
2023-06-17T11:16:21.238Z,6.57
2023-06-17T11:19:42.641Z,6.87
2023-06-17T11:23:05.199Z,7.70
2023-06-17T11:26:27.476Z,6.77
2023-06-17T11:29:49.418Z,7.00
2023-06-17T11:33:12.006Z,6.03
2023-06-17T11:36:35.404Z,7.00
2023-06-17T11:39:59.360Z,6.03
2023-06-17T11:43:24.668Z,6.47
2023-06-17T11:46:46.425Z,6.60
2023-06-17T11:50:10.872Z,7.10
2023-06-17T11:53:35.810Z,6.37
2023-06-17T11:56:57.354Z,6.23
2023-06-17T12:00:19.490Z,7.10
2023-06-17T12:03:45.852Z,6.40
2023-06-17T12:07:09.423Z,6.30
2023-06-17T12:10:30.897Z,6.70
2023-06-17T12:13:52.539Z,6.00
2023-06-17T12:17:17.468Z,5.80
2023-06-17T12:20:39.292Z,6.17
2023-06-17T12:24:02.077Z,5.63
2023-06-17T12:27:30.176Z,4.90
2023-06-17T12:30:51.646Z,4.70
2023-06-17T12:34:13.055Z,4.50
2023-06-17T12:37:36.919Z,4.40
2023-06-17T12:41:00.273Z,3.80
2023-06-17T12:44:22.076Z,3.93
2023-06-17T12:47:43.665Z,4.47
2023-06-17T12:51:05.734Z,4.83
2023-06-17T12:54:27.195Z,4.97
2023-06-17T12:57:50.071Z,4.83
2023-06-17T13:01:11.756Z,5.03
2023-06-17T13:04:33.391Z,4.70
2023-06-17T13:07:55.064Z,5.13
2023-06-17T13:11:16.659Z,5.50
2023-06-17T13:14:39.427Z,5.70
2023-06-17T13:18:01.707Z,5.50
2023-06-17T13:21:23.616Z,5.37
2023-06-17T13:24:45.263Z,5.97
2023-06-17T13:28:07.683Z,10.53
2023-06-17T13:31:31.190Z,9.60
2023-06-17T13:34:52.697Z,9.23
2023-06-17T13:38:14.076Z,9.30
2023-06-17T13:41:35.277Z,9.23
2023-06-17T13:44:57.621Z,8.30
2023-06-17T13:48:20.304Z,5.33
2023-06-17T13:51:41.601Z,5.40
2023-06-17T13:55:03.233Z,6.63
2023-06-17T13:58:24.824Z,6.83
2023-06-17T14:01:46.297Z,7.30
2023-06-17T14:05:10.257Z,7.77
2023-06-17T14:08:31.576Z,8.03
2023-06-17T14:11:53.316Z,8.97
2023-06-17T14:15:14.607Z,8.87
2023-06-17T14:18:35.829Z,10.67
2023-06-17T14:22:01.899Z,10.03
2023-06-17T14:25:23.803Z,10.33
2023-06-17T14:28:46.057Z,10.30
2023-06-17T14:32:08.018Z,10.67
2023-06-17T14:35:29.515Z,9.93
2023-06-17T14:38:52.524Z,8.73
2023-06-17T14:42:13.754Z,8.70
2023-06-17T14:45:35.508Z,10.20
2023-06-17T14:48:57.058Z,10.60
2023-06-17T14:52:18.665Z,10.43
2023-06-17T14:55:41.542Z,9.87
2023-06-17T14:59:04.588Z,10.87
2023-06-17T15:02:43.757Z,9.00
2023-06-17T15:06:05.450Z,8.13
2023-06-17T15:09:28.178Z,8.53
2023-06-17T15:12:50.883Z,8.70
2023-06-17T15:16:12.546Z,9.17
2023-06-17T15:19:34.152Z,8.43
2023-06-17T15:22:55.567Z,7.53
2023-06-17T15:26:17.791Z,8.10
2023-06-17T15:29:41.954Z,8.70
2023-06-17T15:33:03.830Z,7.80
2023-06-17T15:36:25.508Z,8.27
2023-06-17T15:39:46.757Z,7.80
2023-06-17T15:43:08.150Z,7.67
2023-06-17T15:46:30.868Z,8.47
2023-06-17T15:49:52.118Z,9.17
2023-06-17T15:53:13.460Z,8.97
2023-06-17T15:56:37.474Z,7.90
2023-06-17T15:59:59.167Z,8.47
2023-06-17T16:03:29.552Z,8.73
2023-06-17T16:06:52.850Z,9.43
2023-06-17T16:10:16.103Z,8.83
2023-06-17T16:13:39.898Z,8.47
2023-06-17T16:17:02.887Z,9.23
2023-06-17T16:20:25.634Z,9.37
2023-06-17T16:23:47.093Z,10.40
2023-06-17T16:27:09.493Z,9.00
2023-06-17T16:30:30.840Z,8.73
2023-06-17T16:33:52.092Z,9.43
2023-06-17T16:37:16.779Z,8.73
2023-06-17T16:40:37.963Z,8.17
2023-06-17T16:43:59.379Z,8.13
2023-06-17T16:47:21.349Z,7.83
2023-06-17T16:50:43.060Z,8.43
2023-06-17T16:54:06.698Z,7.83
2023-06-17T16:57:28.791Z,7.00
2023-06-17T17:00:50.344Z,7.43
2023-06-17T17:04:13.749Z,8.43
2023-06-17T17:07:35.212Z,7.17
2023-06-17T17:10:57.877Z,6.77
2023-06-17T17:14:19.197Z,7.00
2023-06-17T17:17:41.070Z,6.77
2023-06-17T17:21:02.461Z,6.90
2023-06-17T17:24:24.109Z,7.13
2023-06-17T17:27:47.233Z,7.00
2023-06-17T17:31:08.905Z,6.90
2023-06-17T17:34:30.856Z,10.57
2023-06-17T17:37:52.317Z,10.03
2023-06-17T17:41:14.167Z,8.70
2023-06-17T17:44:37.179Z,7.73
2023-06-17T17:47:58.533Z,7.80
2023-06-17T17:51:19.788Z,8.23
2023-06-17T17:54:53.098Z,7.63
2023-06-17T17:58:22.370Z,8.20
2023-06-17T18:01:44.907Z,8.83
2023-06-17T18:05:07.414Z,7.37
2023-06-17T18:08:28.641Z,8.30
2023-06-17T18:11:49.844Z,7.90
2023-06-17T18:15:12.169Z,6.90
2023-06-17T18:18:35.102Z,7.33
2023-06-17T18:21:56.557Z,8.40
2023-06-17T18:25:18.072Z,7.33
2023-06-17T18:28:39.655Z,6.23
2023-06-17T18:32:01.099Z,7.30
2023-06-17T18:35:23.674Z,6.10
2023-06-17T18:38:45.159Z,6.87
2023-06-17T18:42:06.938Z,6.93
2023-06-17T18:45:28.427Z,6.73
2023-06-17T18:48:50.812Z,6.83
2023-06-17T18:52:13.741Z,6.90
2023-06-17T18:55:34.864Z,6.77
2023-06-17T18:58:56.521Z,7.70
2023-06-17T19:02:18.861Z,7.07
2023-06-17T19:05:40.684Z,6.10
2023-06-17T19:09:03.767Z,6.43
2023-06-17T19:12:25.368Z,6.20
2023-06-17T19:15:46.895Z,6.30
2023-06-17T19:19:08.559Z,5.93
2023-06-17T19:22:30.261Z,6.03
2023-06-17T19:25:52.851Z,6.20
2023-06-17T19:29:15.212Z,5.80
2023-06-17T19:32:37.104Z,5.47
2023-06-17T19:35:58.261Z,6.00
2023-06-17T19:39:19.831Z,7.00
2023-06-17T19:42:42.705Z,6.83
2023-06-17T19:46:04.701Z,6.73
2023-06-17T19:49:26.510Z,7.20
2023-06-17T19:52:47.873Z,6.57
2023-06-17T19:56:09.724Z,6.57
2023-06-17T19:59:32.530Z,6.20
2023-06-17T20:02:56.634Z,6.60
2023-06-17T20:06:18.608Z,6.67
2023-06-17T20:09:40.320Z,6.57
2023-06-17T20:13:02.003Z,6.93
2023-06-17T20:16:24.636Z,7.00
2023-06-17T20:19:46.890Z,7.47
2023-06-17T20:23:08.446Z,7.37
2023-06-17T20:26:29.922Z,7.57
2023-06-17T20:29:51.590Z,7.20
2023-06-17T20:33:14.119Z,7.60
2023-06-17T20:36:35.646Z,7.73
2023-06-17T20:39:56.878Z,6.87
2023-06-17T20:43:18.452Z,7.40
2023-06-17T20:46:39.962Z,7.43
2023-06-17T20:50:02.737Z,7.70
2023-06-17T20:53:24.564Z,7.70
2023-06-17T20:56:46.947Z,7.50
2023-06-17T21:00:09.662Z,8.17
2023-06-17T21:03:31.826Z,7.87
2023-06-17T21:06:54.578Z,8.33
2023-06-17T21:10:16.588Z,8.30
2023-06-17T21:13:37.860Z,8.20
2023-06-17T21:16:59.620Z,8.10
2023-06-17T21:20:21.670Z,8.83
2023-06-17T21:23:44.732Z,8.60
2023-06-17T21:27:10.316Z,8.13
2023-06-17T21:30:32.028Z,8.53
2023-06-17T21:33:54.330Z,8.40
2023-06-17T21:37:16.090Z,8.70
2023-06-17T21:40:38.770Z,8.70
2023-06-17T21:44:00.032Z,8.97
2023-06-17T21:47:21.675Z,10.07
2023-06-17T21:50:44.086Z,9.23
2023-06-17T21:54:05.919Z,9.33
2023-06-17T21:57:30.322Z,8.53
2023-06-17T22:00:52.073Z,8.53
2023-06-17T22:04:13.352Z,9.53
2023-06-17T22:07:34.794Z,8.53
2023-06-17T22:10:56.154Z,9.60
2023-06-17T22:14:19.091Z,9.00
2023-06-17T22:17:40.378Z,10.00
2023-06-17T22:21:01.707Z,9.47
2023-06-17T22:24:23.246Z,9.10
2023-06-17T22:27:46.415Z,9.10
2023-06-17T22:31:09.181Z,8.90
2023-06-17T22:34:30.808Z,8.77
2023-06-17T22:37:52.037Z,9.43
2023-06-17T22:41:13.604Z,8.93
2023-06-17T22:44:35.172Z,8.87
2023-06-17T22:47:57.829Z,9.40
2023-06-17T22:51:19.514Z,8.90
2023-06-17T22:54:40.668Z,9.33
2023-06-17T22:58:01.984Z,9.17
2023-06-17T23:01:24.009Z,8.67
2023-06-17T23:04:47.622Z,9.07
2023-06-17T23:08:08.945Z,10.20
2023-06-17T23:11:30.266Z,9.40
2023-06-17T23:14:51.476Z,9.93
2023-06-17T23:18:13.036Z,8.93
2023-06-17T23:21:37.775Z,8.97
2023-06-17T23:25:03.993Z,9.27
2023-06-17T23:28:28.635Z,9.63
2023-06-17T23:31:50.130Z,9.13
2023-06-17T23:35:11.676Z,9.90
2023-06-17T23:38:36.286Z,8.87
2023-06-17T23:41:57.643Z,8.97
2023-06-17T23:45:19.304Z,9.13
2023-06-17T23:48:40.624Z,9.37
2023-06-17T23:52:02.391Z,9.73
2023-06-17T23:55:25.414Z,9.70
2023-06-17T23:58:46.714Z,9.30
